Time;durP1;ratioP1;P1;durP2;ratioP2;P2;SDS_P1;SDS_P2;PMS_P1;PMS_P2;Temp;Humidity;BMP_temperature;BMP_pressure;BME280_temperature;BME280_humidity;BME280_pressure;Samples;Min_cycle;Max_cycle;Signal;HPM_P1;HPM_P2
2021/07/29 00:01:54;;;;;;;6.43;4.70;;;;;;;;;;5081231;28;20421;-70
2021/07/29 00:04:20;;;;;;;5.37;4.50;;;;;;;;;;5074951;28;20457;-74
2021/07/29 00:06:46;;;;;;;5.13;4.47;;;;;;;;;;5074073;28;20537;-73
2021/07/29 00:09:12;;;;;;;5.10;4.07;;;;;;;;;;5070065;28;20419;-71
2021/07/29 00:11:38;;;;;;;4.23;3.67;;;;;;;;;;5077329;28;20445;-70
2021/07/29 00:14:04;;;;;;;7.50;4.10;;;;;;;;;;5073913;28;20471;-70
2021/07/29 00:16:33;;;;;;;5.07;4.47;;;;;;;;;;5079481;28;20422;-71
2021/07/29 00:19:07;;;;;;;5.03;4.20;;;;;;;;;;5064900;28;20425;-72
2021/07/29 00:21:34;;;;;;;6.87;4.63;;;;;;;;;;5070540;28;20418;-73
2021/07/29 00:24:00;;;;;;;6.10;3.57;;;;;;;;;;5070782;28;21066;-71
2021/07/29 00:26:27;;;;;;;7.00;4.20;;;;;;;;;;5070193;28;20461;-72
2021/07/29 00:28:53;;;;;;;4.57;4.17;;;;;;;;;;5074677;28;20420;-72
2021/07/29 00:31:19;;;;;;;4.90;3.93;;;;;;;;;;5091110;28;20416;-72
2021/07/29 00:33:45;;;;;;;6.17;4.60;;;;;;;;;;5067711;28;20511;-71
2021/07/29 00:36:21;;;;;;;6.70;4.40;;;;;;;;;;5070174;28;20923;-72
2021/07/29 00:38:47;;;;;;;7.40;4.30;;;;;;;;;;5069171;28;20437;-71
2021/07/29 00:41:14;;;;;;;4.40;4.00;;;;;;;;;;5070115;28;20419;-72
2021/07/29 00:43:40;;;;;;;5.13;4.03;;;;;;;;;;5069878;28;20442;-74
2021/07/29 00:46:06;;;;;;;4.37;3.97;;;;;;;;;;5070067;28;20498;-76
2021/07/29 00:48:32;;;;;;;5.30;4.80;;;;;;;;;;5068840;28;20430;-71
2021/07/29 00:50:58;;;;;;;6.97;3.93;;;;;;;;;;5068455;28;20921;-71
2021/07/29 00:53:24;;;;;;;5.43;4.10;;;;;;;;;;5069231;28;20478;-75
2021/07/29 00:55:50;;;;;;;5.00;4.27;;;;;;;;;;5069913;28;20461;-71
2021/07/29 00:58:16;;;;;;;3.87;3.53;;;;;;;;;;5070601;28;20430;-73
2021/07/29 01:00:42;;;;;;;3.60;3.27;;;;;;;;;;5089602;28;20421;-71
2021/07/29 01:03:08;;;;;;;4.17;3.77;;;;;;;;;;5072776;28;20480;-73
2021/07/29 01:05:34;;;;;;;4.37;3.77;;;;;;;;;;5069526;28;20462;-71
2021/07/29 01:08:00;;;;;;;4.53;3.37;;;;;;;;;;5068663;28;20487;-72
2021/07/29 01:10:26;;;;;;;6.03;4.00;;;;;;;;;;5069748;28;20414;-69
2021/07/29 01:12:52;;;;;;;4.30;3.50;;;;;;;;;;5066265;28;20442;-73
2021/07/29 01:15:18;;;;;;;3.97;3.50;;;;;;;;;;5069752;28;20411;-73
2021/07/29 01:17:44;;;;;;;5.37;3.20;;;;;;;;;;5068250;28;20848;-72
2021/07/29 01:20:17;;;;;;;3.80;3.33;;;;;;;;;;5069190;28;20505;-74
2021/07/29 01:22:43;;;;;;;4.20;3.80;;;;;;;;;;5069467;28;20842;-73
2021/07/29 01:25:10;;;;;;;4.57;3.30;;;;;;;;;;5061030;28;20434;-70
2021/07/29 01:27:37;;;;;;;3.77;3.47;;;;;;;;;;5087979;28;20460;-71
2021/07/29 01:30:04;;;;;;;3.50;3.20;;;;;;;;;;5071405;28;20423;-72
2021/07/29 01:32:30;;;;;;;4.13;3.70;;;;;;;;;;5069251;28;20509;-71
2021/07/29 01:34:56;;;;;;;4.10;3.50;;;;;;;;;;5068778;28;20426;-71
2021/07/29 01:37:22;;;;;;;3.60;3.30;;;;;;;;;;5068921;28;20425;-70
2021/07/29 01:39:48;;;;;;;4.80;3.50;;;;;;;;;;5066004;28;20423;-69
2021/07/29 01:42:14;;;;;;;3.80;3.27;;;;;;;;;;5070935;28;20446;-73
2021/07/29 01:44:40;;;;;;;4.63;3.57;;;;;;;;;;5067458;28;20431;-74
2021/07/29 01:47:06;;;;;;;4.00;3.50;;;;;;;;;;5072353;28;20461;-72
2021/07/29 01:49:32;;;;;;;3.47;2.97;;;;;;;;;;5073467;28;20406;-72
2021/07/29 01:51:59;;;;;;;4.10;3.23;;;;;;;;;;5072484;28;20937;-71
2021/07/29 01:54:25;;;;;;;4.20;3.80;;;;;;;;;;5072908;28;20415;-70
2021/07/29 01:56:51;;;;;;;3.37;3.07;;;;;;;;;;5073437;28;20411;-73
2021/07/29 01:59:17;;;;;;;3.80;3.30;;;;;;;;;;5064465;28;20977;-69
2021/07/29 02:01:44;;;;;;;3.50;3.20;;;;;;;;;;5072189;28;20461;-74
2021/07/29 02:04:10;;;;;;;3.90;3.50;;;;;;;;;;5072344;28;20934;-73
2021/07/29 02:06:37;;;;;;;3.37;3.00;;;;;;;;;;5071626;28;20466;-70
2021/07/29 02:09:04;;;;;;;4.00;3.60;;;;;;;;;;5071410;28;20819;-74
2021/07/29 02:11:32;;;;;;;5.37;3.13;;;;;;;;;;5075639;28;20751;-70
2021/07/29 02:13:58;;;;;;;3.87;3.50;;;;;;;;;;5075786;28;20466;-72
2021/07/29 02:16:25;;;;;;;4.53;3.33;;;;;;;;;;5076823;28;20476;-73
2021/07/29 02:18:52;;;;;;;5.10;3.57;;;;;;;;;;5075826;28;20406;-70
2021/07/29 02:21:18;;;;;;;5.80;3.50;;;;;;;;;;5076452;28;20415;-72
2021/07/29 02:23:45;;;;;;;8.10;3.27;;;;;;;;;;5090316;28;20429;-72
2021/07/29 02:26:11;;;;;;;4.00;3.50;;;;;;;;;;5096358;28;20463;-72
2021/07/29 02:28:37;;;;;;;4.13;3.43;;;;;;;;;;5090109;28;20403;-69
2021/07/29 02:31:04;;;;;;;4.03;3.63;;;;;;;;;;5076525;28;20441;-71
2021/07/29 02:33:30;;;;;;;3.83;3.53;;;;;;;;;;5076078;28;20430;-72
2021/07/29 02:35:56;;;;;;;4.20;3.80;;;;;;;;;;5076361;28;20476;-71
2021/07/29 02:38:22;;;;;;;3.80;3.40;;;;;;;;;;5075603;28;20411;-75
2021/07/29 02:40:48;;;;;;;6.00;3.47;;;;;;;;;;5076207;28;20406;-72
2021/07/29 02:43:14;;;;;;;3.90;3.47;;;;;;;;;;5075739;28;20435;-70
2021/07/29 02:45:40;;;;;;;4.63;4.03;;;;;;;;;;5078831;28;20969;-73
2021/07/29 02:48:06;;;;;;;4.03;3.30;;;;;;;;;;5075400;28;20446;-73
2021/07/29 02:50:32;;;;;;;4.70;3.50;;;;;;;;;;5075300;28;20407;-71
2021/07/29 02:52:58;;;;;;;5.00;3.43;;;;;;;;;;5084458;28;20816;-73
2021/07/29 02:55:24;;;;;;;3.77;3.47;;;;;;;;;;5074842;28;20915;-74
2021/07/29 02:57:50;;;;;;;6.30;3.60;;;;;;;;;;5088003;28;20424;-71
2021/07/29 03:00:16;;;;;;;4.93;3.53;;;;;;;;;;5079861;28;20419;-72
2021/07/29 03:02:42;;;;;;;3.30;3.00;;;;;;;;;;5084531;28;20820;-73
2021/07/29 03:05:08;;;;;;;4.73;3.57;;;;;;;;;;5069124;28;20434;-70
2021/07/29 03:07:34;;;;;;;5.53;4.50;;;;;;;;;;5075129;28;20962;-71
2021/07/29 03:10:00;;;;;;;4.33;3.60;;;;;;;;;;5074376;28;20424;-69
2021/07/29 03:12:26;;;;;;;4.20;3.80;;;;;;;;;;5067802;28;20440;-73
2021/07/29 03:14:52;;;;;;;4.17;3.70;;;;;;;;;;5061023;28;20743;-72
2021/07/29 03:17:18;;;;;;;3.90;3.50;;;;;;;;;;5062140;28;20420;-74
2021/07/29 03:19:44;;;;;;;4.33;3.93;;;;;;;;;;5077964;28;20407;-70
2021/07/29 03:22:11;;;;;;;4.30;3.67;;;;;;;;;;5075744;28;20433;-73
2021/07/29 03:24:37;;;;;;;5.03;3.63;;;;;;;;;;5079827;28;20831;-72
2021/07/29 03:27:03;;;;;;;8.30;3.40;;;;;;;;;;5074573;28;20488;-73
2021/07/29 03:29:29;;;;;;;3.67;3.37;;;;;;;;;;5074339;28;20426;-73
2021/07/29 03:31:55;;;;;;;4.27;3.70;;;;;;;;;;5074534;28;20423;-74
2021/07/29 03:34:21;;;;;;;4.20;3.80;;;;;;;;;;5075122;28;20412;-70
2021/07/29 03:36:47;;;;;;;4.37;3.37;;;;;;;;;;5074236;28;20419;-72
2021/07/29 03:39:14;;;;;;;4.43;3.40;;;;;;;;;;5067187;28;20504;-69
2021/07/29 03:41:40;;;;;;;3.50;3.20;;;;;;;;;;5083538;28;20450;-69
2021/07/29 03:44:06;;;;;;;4.43;3.80;;;;;;;;;;5068756;28;20442;-73
2021/07/29 03:46:32;;;;;;;4.17;3.77;;;;;;;;;;5067130;28;20463;-72
2021/07/29 03:48:58;;;;;;;3.57;3.27;;;;;;;;;;5074575;28;20806;-71
2021/07/29 03:51:25;;;;;;;4.30;3.90;;;;;;;;;;5074962;28;20755;-73
2021/07/29 03:53:52;;;;;;;4.00;3.70;;;;;;;;;;5073860;28;20434;-71
2021/07/29 03:56:18;;;;;;;4.70;4.10;;;;;;;;;;5076324;28;20449;-71
2021/07/29 03:58:44;;;;;;;4.30;3.73;;;;;;;;;;5089133;28;20767;-71
2021/07/29 04:01:11;;;;;;;3.80;3.50;;;;;;;;;;5080965;28;20455;-70
2021/07/29 04:03:37;;;;;;;4.73;4.00;;;;;;;;;;5081063;28;20505;-72
2021/07/29 04:06:04;;;;;;;5.30;3.60;;;;;;;;;;5074463;28;20462;-72
2021/07/29 04:08:30;;;;;;;4.20;3.80;;;;;;;;;;5073529;28;20426;-72
2021/07/29 04:10:58;;;;;;;4.10;3.77;;;;;;;;;;5074176;28;20411;-74
2021/07/29 04:13:25;;;;;;;7.20;4.20;;;;;;;;;;5073776;28;20441;-71
2021/07/29 04:16:04;;;;;;;4.90;4.50;;;;;;;;;;5073390;28;20859;-70
2021/07/29 04:18:31;;;;;;;6.10;5.50;;;;;;;;;;5072952;28;20783;-73
2021/07/29 04:20:58;;;;;;;5.67;4.20;;;;;;;;;;5073468;28;20477;-73
2021/07/29 04:23:24;;;;;;;4.87;4.47;;;;;;;;;;5071950;28;20795;-72
2021/07/29 04:25:50;;;;;;;5.07;3.90;;;;;;;;;;5065754;28;20472;-73
2021/07/29 04:28:16;;;;;;;4.23;3.80;;;;;;;;;;5073759;28;20468;-73
2021/07/29 04:30:42;;;;;;;5.00;3.90;;;;;;;;;;5067757;28;20413;-69
2021/07/29 04:33:08;;;;;;;4.80;4.40;;;;;;;;;;5076215;28;20429;-69
2021/07/29 04:35:35;;;;;;;5.80;3.77;;;;;;;;;;5082971;28;20515;-69
2021/07/29 04:38:01;;;;;;;4.53;4.10;;;;;;;;;;5076843;28;20427;-74
2021/07/29 04:40:27;;;;;;;4.03;3.73;;;;;;;;;;5090001;28;20459;-71
2021/07/29 04:42:53;;;;;;;4.10;3.80;;;;;;;;;;5078759;28;20453;-72
2021/07/29 04:45:19;;;;;;;4.40;4.03;;;;;;;;;;5069143;28;20422;-73
2021/07/29 04:47:45;;;;;;;4.07;3.60;;;;;;;;;;5063864;28;20502;-72
2021/07/29 04:50:11;;;;;;;6.60;4.57;;;;;;;;;;5081250;28;20501;-72
2021/07/29 04:52:37;;;;;;;4.60;4.17;;;;;;;;;;5073690;28;20438;-71
2021/07/29 04:55:03;;;;;;;4.77;4.20;;;;;;;;;;5071325;28;20418;-68
2021/07/29 04:57:29;;;;;;;7.00;3.87;;;;;;;;;;5066468;28;20413;-70
2021/07/29 04:59:55;;;;;;;5.20;4.30;;;;;;;;;;5072646;28;20422;-70
2021/07/29 05:02:21;;;;;;;5.87;3.80;;;;;;;;;;5068709;28;20442;-71
2021/07/29 05:04:47;;;;;;;7.23;3.77;;;;;;;;;;5072996;28;20438;-72
2021/07/29 05:07:13;;;;;;;5.93;4.10;;;;;;;;;;5072279;28;20788;-72
2021/07/29 05:09:39;;;;;;;4.30;3.20;;;;;;;;;;5073148;28;20421;-70
2021/07/29 05:12:05;;;;;;;3.70;3.30;;;;;;;;;;5062280;28;20429;-72
2021/07/29 05:14:31;;;;;;;4.53;3.90;;;;;;;;;;5071485;28;20416;-70
2021/07/29 05:17:01;;;;;;;4.80;3.60;;;;;;;;;;5078371;28;20445;-70
2021/07/29 05:19:27;;;;;;;4.63;3.93;;;;;;;;;;5071616;28;20432;-72
2021/07/29 05:21:53;;;;;;;4.00;3.47;;;;;;;;;;5076144;28;20501;-73
2021/07/29 05:24:19;;;;;;;3.90;3.57;;;;;;;;;;5072392;28;20446;-72
2021/07/29 05:26:45;;;;;;;5.80;3.43;;;;;;;;;;5075152;28;20519;-70
2021/07/29 05:29:11;;;;;;;6.47;3.80;;;;;;;;;;5072509;28;20827;-72
2021/07/29 05:31:41;;;;;;;7.10;3.67;;;;;;;;;;5070864;28;20806;-73
2021/07/29 05:34:07;;;;;;;4.50;3.53;;;;;;;;;;5072830;28;20505;-74
2021/07/29 05:36:33;;;;;;;5.30;3.67;;;;;;;;;;5073009;28;20495;-71
2021/07/29 05:38:59;;;;;;;6.00;4.20;;;;;;;;;;5072943;28;20851;-71
2021/07/29 05:41:25;;;;;;;5.77;4.00;;;;;;;;;;5072393;28;20472;-72
2021/07/29 05:43:51;;;;;;;4.70;4.30;;;;;;;;;;5071196;28;20434;-74
2021/07/29 05:46:17;;;;;;;5.47;3.87;;;;;;;;;;5067846;28;20528;-70
2021/07/29 05:48:43;;;;;;;5.80;4.30;;;;;;;;;;5076453;28;20417;-70
2021/07/29 05:51:09;;;;;;;6.27;5.00;;;;;;;;;;5088145;28;20469;-71
2021/07/29 05:53:35;;;;;;;5.27;4.73;;;;;;;;;;5076794;28;20430;-71
2021/07/29 05:56:01;;;;;;;4.30;3.90;;;;;;;;;;5076073;28;20422;-70
2021/07/29 05:58:27;;;;;;;5.10;4.27;;;;;;;;;;5079098;28;20619;-73
2021/07/29 06:00:54;;;;;;;5.17;3.60;;;;;;;;;;5080553;28;20433;-70
2021/07/29 06:03:20;;;;;;;4.80;3.70;;;;;;;;;;5074382;28;20453;-74
2021/07/29 06:05:46;;;;;;;4.60;3.60;;;;;;;;;;5076535;28;20462;-72
2021/07/29 06:08:12;;;;;;;5.03;3.90;;;;;;;;;;5075569;28;20423;-72
2021/07/29 06:10:39;;;;;;;4.00;3.60;;;;;;;;;;5075923;28;20959;-72
2021/07/29 06:13:05;;;;;;;7.43;3.90;;;;;;;;;;5076660;28;20470;-71
2021/07/29 06:15:31;;;;;;;4.20;3.80;;;;;;;;;;5075770;28;20414;-70
2021/07/29 06:18:01;;;;;;;3.50;3.20;;;;;;;;;;5075799;28;20464;-71
2021/07/29 06:20:31;;;;;;;3.80;3.30;;;;;;;;;;5076423;28;20872;-71
2021/07/29 06:22:57;;;;;;;3.77;3.47;;;;;;;;;;5067165;28;20462;-76
2021/07/29 06:25:23;;;;;;;5.40;3.63;;;;;;;;;;5073336;28;20411;-74
2021/07/29 06:27:49;;;;;;;4.73;3.93;;;;;;;;;;5071064;28;20729;-71
2021/07/29 06:30:18;;;;;;;4.93;3.77;;;;;;;;;;5072461;28;20406;-69
2021/07/29 06:32:44;;;;;;;5.07;3.60;;;;;;;;;;5068224;28;20507;-71
2021/07/29 06:35:11;;;;;;;3.93;3.50;;;;;;;;;;5057079;28;20419;-73
2021/07/29 06:37:37;;;;;;;4.40;4.00;;;;;;;;;;5072158;28;20479;-70
2021/07/29 06:40:03;;;;;;;5.60;3.90;;;;;;;;;;5065857;28;20461;-69
2021/07/29 06:42:29;;;;;;;4.10;3.13;;;;;;;;;;5079267;28;20922;-71
2021/07/29 06:44:56;;;;;;;4.63;4.00;;;;;;;;;;5072028;28;20445;-69
2021/07/29 06:47:23;;;;;;;6.70;4.20;;;;;;;;;;5071772;28;20520;-72
2021/07/29 06:49:50;;;;;;;3.73;3.33;;;;;;;;;;5072385;28;20414;-71
2021/07/29 06:52:16;;;;;;;5.93;3.77;;;;;;;;;;5071810;28;20579;-73
2021/07/29 06:54:42;;;;;;;5.10;3.67;;;;;;;;;;5072119;28;20450;-72
2021/07/29 06:57:08;;;;;;;5.50;3.70;;;;;;;;;;5078757;28;20770;-71
2021/07/29 06:59:34;;;;;;;8.97;3.70;;;;;;;;;;5077428;28;20449;-69
2021/07/29 07:02:01;;;;;;;5.30;3.40;;;;;;;;;;5092222;28;21093;-72
2021/07/29 07:04:27;;;;;;;4.00;3.60;;;;;;;;;;5076181;28;20944;-70
2021/07/29 07:06:53;;;;;;;4.13;3.40;;;;;;;;;;5070972;28;20520;-70
2021/07/29 07:09:19;;;;;;;4.00;3.60;;;;;;;;;;5071564;28;20438;-72
2021/07/29 07:11:45;;;;;;;5.43;3.10;;;;;;;;;;5078855;28;20922;-73
2021/07/29 07:14:11;;;;;;;4.50;3.37;;;;;;;;;;5091614;28;20464;-69
2021/07/29 07:16:37;;;;;;;5.90;3.40;;;;;;;;;;5074058;28;20427;-72
2021/07/29 07:19:03;;;;;;;3.30;2.80;;;;;;;;;;5071460;28;20422;-73
2021/07/29 07:21:29;;;;;;;4.77;3.20;;;;;;;;;;5071333;28;20508;-72
2021/07/29 07:23:55;;;;;;;5.87;3.20;;;;;;;;;;5071239;28;21010;-72
2021/07/29 07:26:22;;;;;;;4.37;2.63;;;;;;;;;;5071403;28;20529;-73
2021/07/29 07:28:49;;;;;;;3.50;3.10;;;;;;;;;;5075687;28;21154;-72
2021/07/29 07:31:16;;;;;;;5.27;3.13;;;;;;;;;;5080518;28;20409;-71
2021/07/29 07:33:42;;;;;;;6.50;2.43;;;;;;;;;;5072995;28;20529;-72
2021/07/29 07:36:08;;;;;;;4.97;2.67;;;;;;;;;;5071317;28;20414;-71
2021/07/29 07:38:34;;;;;;;3.63;2.80;;;;;;;;;;5070905;28;20434;-70
2021/07/29 07:41:07;;;;;;;3.67;2.47;;;;;;;;;;5070989;28;20418;-73
2021/07/29 07:43:33;;;;;;;3.10;2.80;;;;;;;;;;5071022;28;20451;-71
2021/07/29 07:46:00;;;;;;;4.07;3.30;;;;;;;;;;5070913;28;20459;-73
2021/07/29 07:48:26;;;;;;;3.87;2.50;;;;;;;;;;5074074;28;20457;-73
2021/07/29 07:50:53;;;;;;;5.17;2.60;;;;;;;;;;5082487;28;20444;-69
2021/07/29 07:53:21;;;;;;;4.10;2.50;;;;;;;;;;5070544;28;20467;-73
2021/07/29 07:55:47;;;;;;;2.53;2.33;;;;;;;;;;5070659;28;20429;-71
2021/07/29 07:58:13;;;;;;;3.10;2.80;;;;;;;;;;5085841;28;20433;-73
2021/07/29 08:00:39;;;;;;;4.33;2.97;;;;;;;;;;5070632;28;20431;-72
2021/07/29 08:03:05;;;;;;;3.10;2.50;;;;;;;;;;5070165;28;20883;-69
2021/07/29 08:05:31;;;;;;;5.33;3.20;;;;;;;;;;5070484;28;20442;-71
2021/07/29 08:07:59;;;;;;;4.23;2.63;;;;;;;;;;5069610;28;21035;-74
2021/07/29 08:10:25;;;;;;;3.07;2.77;;;;;;;;;;5071093;28;20838;-74
2021/07/29 08:12:51;;;;;;;4.90;2.67;;;;;;;;;;5088297;28;20431;-71
2021/07/29 08:15:17;;;;;;;5.13;2.80;;;;;;;;;;5077446;28;20938;-73
2021/07/29 08:17:43;;;;;;;5.13;2.87;;;;;;;;;;5069745;28;20815;-69
2021/07/29 08:20:09;;;;;;;5.97;2.60;;;;;;;;;;5070344;28;20418;-71
2021/07/29 08:22:35;;;;;;;2.80;2.50;;;;;;;;;;5087894;28;20477;-73
2021/07/29 08:25:01;;;;;;;3.00;2.60;;;;;;;;;;5070128;28;20435;-72
2021/07/29 08:27:27;;;;;;;4.50;2.70;;;;;;;;;;5069511;28;20468;-71
2021/07/29 08:29:53;;;;;;;4.40;3.20;;;;;;;;;;5069821;28;20834;-73
2021/07/29 08:32:19;;;;;;;3.73;3.00;;;;;;;;;;5070055;28;20736;-70
2021/07/29 08:34:45;;;;;;;3.73;2.60;;;;;;;;;;5070023;28;20418;-71
2021/07/29 08:37:13;;;;;;;3.50;2.57;;;;;;;;;;5069148;28;20480;-73
2021/07/29 08:39:39;;;;;;;5.20;2.43;;;;;;;;;;5075380;28;20480;-70
2021/07/29 08:42:06;;;;;;;3.33;2.50;;;;;;;;;;5079966;28;20436;-73
2021/07/29 08:44:34;;;;;;;4.17;2.50;;;;;;;;;;5079736;28;20819;-71
2021/07/29 08:47:01;;;;;;;2.93;2.10;;;;;;;;;;5069053;28;20474;-72
2021/07/29 08:49:27;;;;;;;6.40;2.70;;;;;;;;;;5081060;28;20527;-74
2021/07/29 08:51:53;;;;;;;3.70;2.77;;;;;;;;;;5074648;28;20432;-71
2021/07/29 08:54:19;;;;;;;3.17;2.43;;;;;;;;;;5090041;28;20416;-72
2021/07/29 08:56:45;;;;;;;2.90;2.40;;;;;;;;;;5074558;28;20417;-71
2021/07/29 08:59:12;;;;;;;6.77;2.50;;;;;;;;;;5081919;28;20786;-72
2021/07/29 09:01:45;;;;;;;3.73;2.07;;;;;;;;;;5072151;28;20458;-73
2021/07/29 09:04:12;;;;;;;3.43;2.40;;;;;;;;;;5068750;28;20457;-73
2021/07/29 09:06:52;;;;;;;3.00;2.43;;;;;;;;;;5069153;28;20470;-69
2021/07/29 09:09:34;;;;;;;3.50;2.40;;;;;;;;;;5069520;28;20855;-74
2021/07/29 09:12:13;;;;;;;2.90;2.00;;;;;;;;;;5069650;28;20493;-70
2021/07/29 09:14:39;;;;;;;3.83;2.40;;;;;;;;;;5075071;28;20474;-71
2021/07/29 09:17:07;;;;;;;2.73;2.23;;;;;;;;;;5079145;28;20438;-72
2021/07/29 09:19:37;;;;;;;3.27;1.93;;;;;;;;;;5076002;28;20437;-73
2021/07/29 09:22:12;;;;;;;2.60;2.00;;;;;;;;;;5068558;28;20433;-72
2021/07/29 09:24:56;;;;;;;3.03;1.87;;;;;;;;;;5069203;28;20421;-71
2021/07/29 09:27:22;;;;;;;7.63;2.10;;;;;;;;;;5068711;28;21067;-73
2021/07/29 09:29:48;;;;;;;2.77;1.87;;;;;;;;;;5070704;28;20445;-73
2021/07/29 09:32:16;;;;;;;2.57;2.00;;;;;;;;;;5069115;28;20438;-74
2021/07/29 09:34:46;;;;;;;4.87;2.50;;;;;;;;;;5067954;28;20448;-73
2021/07/29 09:37:12;;;;;;;2.60;1.90;;;;;;;;;;5066834;28;20441;-72
2021/07/29 09:39:38;;;;;;;5.80;1.97;;;;;;;;;;5068206;28;20429;-73
2021/07/29 09:42:14;;;;;;;4.07;2.40;;;;;;;;;;5079188;28;20452;-73
2021/07/29 09:44:41;;;;;;;3.80;2.27;;;;;;;;;;5089558;28;20474;-72
2021/07/29 09:47:07;;;;;;;3.47;2.00;;;;;;;;;;5078447;28;20458;-74
2021/07/29 09:49:35;;;;;;;2.90;2.03;;;;;;;;;;5068726;28;20433;-71
2021/07/29 09:52:02;;;;;;;7.00;2.20;;;;;;;;;;5075028;28;20421;-73
2021/07/29 09:54:29;;;;;;;3.13;2.40;;;;;;;;;;5081553;28;20520;-71
2021/07/29 09:56:55;;;;;;;5.40;2.10;;;;;;;;;;5066243;28;20418;-72
2021/07/29 09:59:21;;;;;;;3.53;2.00;;;;;;;;;;5069261;28;20460;-74
2021/07/29 10:01:48;;;;;;;3.63;2.00;;;;;;;;;;5089363;28;20716;-74
2021/07/29 10:04:15;;;;;;;2.47;2.00;;;;;;;;;;5073732;28;20444;-70
2021/07/29 10:06:41;;;;;;;2.33;1.90;;;;;;;;;;5068640;28;20466;-70
2021/07/29 10:09:12;;;;;;;3.33;2.10;;;;;;;;;;5068560;28;20493;-69
2021/07/29 10:11:39;;;;;;;4.13;2.33;;;;;;;;;;5067670;28;20926;-73
2021/07/29 10:14:05;;;;;;;2.83;2.20;;;;;;;;;;5068961;28;20484;-74
2021/07/29 10:17:01;;;;;;;4.60;2.20;;;;;;;;;;5068797;28;20818;-71
2021/07/29 10:19:28;;;;;;;3.17;2.33;;;;;;;;;;5065690;28;20453;-74
2021/07/29 10:21:54;;;;;;;4.00;2.00;;;;;;;;;;5081402;28;21093;-73
2021/07/29 10:24:20;;;;;;;3.70;2.00;;;;;;;;;;5068547;28;20426;-69
2021/07/29 10:27:01;;;;;;;3.30;2.57;;;;;;;;;;5068110;28;20458;-73
2021/07/29 10:29:29;;;;;;;4.97;2.10;;;;;;;;;;5067963;28;20410;-70
2021/07/29 10:31:57;;;;;;;3.77;2.20;;;;;;;;;;5070086;28;20414;-73
2021/07/29 10:34:28;;;;;;;7.00;2.37;;;;;;;;;;5072156;28;20440;-69
2021/07/29 10:36:56;;;;;;;3.70;2.30;;;;;;;;;;5071741;28;20433;-71
2021/07/29 10:39:22;;;;;;;4.33;2.20;;;;;;;;;;5072328;28;20421;-73
2021/07/29 10:41:49;;;;;;;3.90;2.10;;;;;;;;;;5073991;28;20435;-74
2021/07/29 10:44:41;;;;;;;3.90;2.23;;;;;;;;;;5072888;28;20448;-75
2021/07/29 10:47:07;;;;;;;2.73;2.10;;;;;;;;;;5071336;28;20553;-73
2021/07/29 10:49:45;;;;;;;2.70;2.20;;;;;;;;;;5071970;28;20775;-70
2021/07/29 10:52:12;;;;;;;3.37;2.30;;;;;;;;;;5071663;28;20450;-72
2021/07/29 10:54:40;;;;;;;4.40;2.10;;;;;;;;;;5070262;28;20996;-71
2021/07/29 10:57:07;;;;;;;3.67;2.10;;;;;;;;;;5071379;28;20852;-71
2021/07/29 10:59:33;;;;;;;3.93;1.90;;;;;;;;;;5071649;28;20425;-74
2021/07/29 11:02:23;;;;;;;3.20;2.30;;;;;;;;;;5071461;28;20525;-71
2021/07/29 11:04:53;;;;;;;3.53;2.20;;;;;;;;;;5071049;28;20844;-72
2021/07/29 11:07:22;;;;;;;3.33;2.40;;;;;;;;;;5073483;28;20462;-72
2021/07/29 11:09:48;;;;;;;3.10;2.17;;;;;;;;;;5088672;28;20434;-71
2021/07/29 11:12:19;;;;;;;4.57;2.77;;;;;;;;;;5079897;28;20445;-75
2021/07/29 11:14:45;;;;;;;3.40;2.63;;;;;;;;;;5071154;28;20471;-71
2021/07/29 11:17:12;;;;;;;3.70;2.37;;;;;;;;;;5083877;28;20476;-68
2021/07/29 11:19:48;;;;;;;3.67;2.63;;;;;;;;;;5082412;28;20818;-74
2021/07/29 11:22:15;;;;;;;5.83;2.87;;;;;;;;;;5076269;28;20452;-72
2021/07/29 11:24:41;;;;;;;5.13;3.00;;;;;;;;;;5090027;28;20409;-70
2021/07/29 11:27:11;;;;;;;2.97;2.30;;;;;;;;;;5071011;28;21057;-71
2021/07/29 11:29:52;;;;;;;2.70;2.20;;;;;;;;;;5070642;28;20431;-70
2021/07/29 11:32:18;;;;;;;4.50;2.70;;;;;;;;;;5070707;28;20438;-70
2021/07/29 11:34:44;;;;;;;3.43;2.37;;;;;;;;;;5086211;28;20841;-72
2021/07/29 11:37:10;;;;;;;4.30;2.43;;;;;;;;;;5083226;28;20489;-72
2021/07/29 11:39:37;;;;;;;4.30;2.20;;;;;;;;;;5072479;28;20907;-70
2021/07/29 11:42:03;;;;;;;3.40;2.80;;;;;;;;;;5070597;28;20446;-71
2021/07/29 11:44:39;;;;;;;4.67;2.40;;;;;;;;;;5071421;28;20844;-73
2021/07/29 11:47:05;;;;;;;2.80;2.30;;;;;;;;;;5069487;28;20466;-75
2021/07/29 11:49:31;;;;;;;3.63;2.50;;;;;;;;;;5075869;28;20425;-74
2021/07/29 11:52:03;;;;;;;3.07;2.10;;;;;;;;;;5072162;28;20407;-72
2021/07/29 11:54:31;;;;;;;3.73;2.30;;;;;;;;;;5071141;28;20406;-73
2021/07/29 11:56:57;;;;;;;2.73;2.00;;;;;;;;;;5076042;28;20405;-72
2021/07/29 11:59:24;;;;;;;3.23;2.00;;;;;;;;;;5089669;28;20429;-74
2021/07/29 12:01:50;;;;;;;3.27;2.40;;;;;;;;;;5087232;28;20454;-71
2021/07/29 12:04:17;;;;;;;3.60;2.20;;;;;;;;;;5070424;28;20553;-73
2021/07/29 12:06:44;;;;;;;3.23;2.40;;;;;;;;;;5089677;28;20460;-74
2021/07/29 12:09:10;;;;;;;4.63;2.40;;;;;;;;;;5076645;28;20418;-73
2021/07/29 12:11:36;;;;;;;4.00;2.00;;;;;;;;;;5076227;28;20457;-71
2021/07/29 12:14:03;;;;;;;3.80;2.20;;;;;;;;;;5073780;28;20427;-70
2021/07/29 12:16:46;;;;;;;2.87;2.30;;;;;;;;;;5070414;28;20446;-70
2021/07/29 12:19:12;;;;;;;3.43;2.10;;;;;;;;;;5070188;28;20921;-73
2021/07/29 12:21:38;;;;;;;3.63;2.50;;;;;;;;;;5069849;28;20789;-72
2021/07/29 12:24:04;;;;;;;2.70;2.20;;;;;;;;;;5084842;28;20441;-74
2021/07/29 12:26:30;;;;;;;3.00;2.47;;;;;;;;;;5082761;28;20494;-74
2021/07/29 12:28:56;;;;;;;5.33;2.50;;;;;;;;;;5076120;28;20410;-71
2021/07/29 12:31:23;;;;;;;4.77;2.40;;;;;;;;;;5069766;28;20462;-72
2021/07/29 12:33:52;;;;;;;5.00;2.20;;;;;;;;;;5056922;28;20426;-73
2021/07/29 12:36:20;;;;;;;5.40;2.10;;;;;;;;;;5069785;28;20431;-71
2021/07/29 12:38:46;;;;;;;3.53;1.80;;;;;;;;;;5069272;28;20498;-73
2021/07/29 12:41:28;;;;;;;3.87;1.80;;;;;;;;;;5082743;28;20887;-70
2021/07/29 12:44:15;;;;;;;2.40;1.60;;;;;;;;;;5088800;28;20429;-70
2021/07/29 12:46:43;;;;;;;3.30;1.90;;;;;;;;;;5068870;28;20547;-74
2021/07/29 12:49:09;;;;;;;5.80;2.60;;;;;;;;;;5082882;28;20474;-70
2021/07/29 12:51:35;;;;;;;7.07;2.20;;;;;;;;;;5082826;28;20418;-71
2021/07/29 12:54:01;;;;;;;4.70;2.33;;;;;;;;;;5082893;28;20494;-71
2021/07/29 12:56:27;;;;;;;2.37;1.73;;;;;;;;;;5075351;28;20525;-72
2021/07/29 12:58:53;;;;;;;2.80;1.73;;;;;;;;;;5069035;28;20462;-72
2021/07/29 13:01:19;;;;;;;3.37;2.70;;;;;;;;;;5075532;28;20433;-73
2021/07/29 13:03:45;;;;;;;3.63;2.20;;;;;;;;;;5078990;28;20446;-72
2021/07/29 13:06:11;;;;;;;3.30;2.57;;;;;;;;;;5069018;28;20474;-74
2021/07/29 13:08:37;;;;;;;4.67;2.40;;;;;;;;;;5082340;28;20428;-73
2021/07/29 13:11:05;;;;;;;3.80;2.30;;;;;;;;;;5089558;28;20409;-74
2021/07/29 13:13:33;;;;;;;3.00;2.03;;;;;;;;;;5084544;28;20449;-71
2021/07/29 13:15:59;;;;;;;5.37;2.40;;;;;;;;;;5089698;28;20805;-70
2021/07/29 13:18:26;;;;;;;4.67;2.57;;;;;;;;;;5072007;28;20421;-72
2021/07/29 13:20:55;;;;;;;2.93;2.43;;;;;;;;;;5068802;28;20445;-74
2021/07/29 13:23:22;;;;;;;3.03;2.20;;;;;;;;;;5082873;28;20453;-70
2021/07/29 13:25:49;;;;;;;3.10;2.80;;;;;;;;;;5079775;28;20548;-71
2021/07/29 13:28:16;;;;;;;3.10;2.80;;;;;;;;;;5068709;28;20436;-72
2021/07/29 13:30:42;;;;;;;4.07;2.80;;;;;;;;;;5069217;28;20799;-70
2021/07/29 13:33:09;;;;;;;2.83;2.60;;;;;;;;;;5068838;28;21043;-73
2021/07/29 13:35:35;;;;;;;3.07;2.23;;;;;;;;;;5070144;28;20418;-70
2021/07/29 13:38:01;;;;;;;3.87;2.47;;;;;;;;;;5069257;28;20776;-72
2021/07/29 13:40:29;;;;;;;5.13;3.23;;;;;;;;;;5071532;28;20421;-69
2021/07/29 13:42:55;;;;;;;4.50;3.00;;;;;;;;;;5084959;28;20471;-69
2021/07/29 13:45:21;;;;;;;4.03;2.60;;;;;;;;;;5077192;28;20787;-70
2021/07/29 13:47:48;;;;;;;4.77;3.17;;;;;;;;;;5068456;28;20544;-74
2021/07/29 13:50:15;;;;;;;3.40;2.87;;;;;;;;;;5070596;28;20424;-72
2021/07/29 13:52:41;;;;;;;2.70;2.30;;;;;;;;;;5070171;28;20483;-72
2021/07/29 13:55:07;;;;;;;5.77;3.17;;;;;;;;;;5071772;28;20452;-72
2021/07/29 13:57:33;;;;;;;6.93;3.33;;;;;;;;;;5078567;28;20504;-70
2021/07/29 13:59:59;;;;;;;5.00;2.97;;;;;;;;;;5076733;28;20468;-71
2021/07/29 14:02:25;;;;;;;3.87;2.90;;;;;;;;;;5068440;28;20788;-71
2021/07/29 14:04:51;;;;;;;5.63;3.60;;;;;;;;;;5071389;28;20460;-72
2021/07/29 14:07:17;;;;;;;5.63;3.63;;;;;;;;;;5083822;28;20471;-70
2021/07/29 14:09:44;;;;;;;6.37;4.10;;;;;;;;;;5089917;28;21999;-71
2021/07/29 14:12:10;;;;;;;4.17;3.37;;;;;;;;;;5072798;28;21188;-73
2021/07/29 14:14:36;;;;;;;4.80;3.70;;;;;;;;;;5072495;28;20471;-72
2021/07/29 14:17:11;;;;;;;5.13;4.10;;;;;;;;;;5072158;28;20426;-73
2021/07/29 14:19:58;;;;;;;5.60;4.20;;;;;;;;;;5072374;28;20418;-73
2021/07/29 14:23:11;;;;;;;4.90;4.40;;;;;;;;;;5072685;28;20843;-74
2021/07/29 14:25:10;;;;;;;4.67;4.27;;;;;;;;;;5088632;28;20429;-72
2021/07/29 14:27:36;;;;;;;5.07;3.83;;;;;;;;;;5083042;28;20499;-71
2021/07/29 14:30:06;;;;;;;4.50;3.73;;;;;;;;;;5072367;28;20426;-71
2021/07/29 14:32:32;;;;;;;4.50;3.47;;;;;;;;;;5073228;28;20445;-70
2021/07/29 14:34:58;;;;;;;7.07;3.33;;;;;;;;;;5072073;28;20429;-74
2021/07/29 14:37:27;;;;;;;6.17;3.20;;;;;;;;;;5071486;28;20425;-70
2021/07/29 14:39:56;;;;;;;5.00;3.83;;;;;;;;;;5072204;28;20426;-72
2021/07/29 14:42:23;;;;;;;4.33;2.80;;;;;;;;;;5075551;28;20449;-70
2021/07/29 14:44:52;;;;;;;4.33;3.13;;;;;;;;;;5083693;28;20516;-72